sensor_id;sensor_type;location;lat;lon;timestamp;P1;durP1;ratioP1;P2;durP2;ratioP2
6979;SDS011;3530;52.832;10.680;2022-10-15T00:00:09;5.72;;;5.13;;
6979;SDS011;3530;52.832;10.680;2022-10-15T00:02:55;4.38;;;3.97;;
6979;SDS011;3530;52.832;10.680;2022-10-15T00:05:41;5.90;;;4.55;;
6979;SDS011;3530;52.832;10.680;2022-10-15T00:08:27;5.03;;;3.97;;
6979;SDS011;3530;52.832;10.680;2022-10-15T00:11:14;5.05;;;4.13;;
6979;SDS011;3530;52.832;10.680;2022-10-15T00:14:01;4.95;;;4.53;;
6979;SDS011;3530;52.832;10.680;2022-10-15T00:16:47;4.03;;;3.72;;
6979;SDS011;3530;52.832;10.680;2022-10-15T00:19:32;5.00;;;4.32;;
6979;SDS011;3530;52.832;10.680;2022-10-15T00:22:18;6.25;;;4.03;;
6979;SDS011;3530;52.832;10.680;2022-10-15T00:25:04;4.93;;;4.43;;
6979;SDS011;3530;52.832;10.680;2022-10-15T00:27:50;7.28;;;3.33;;
6979;SDS011;3530;52.832;10.680;2022-10-15T00:30:36;4.80;;;4.32;;
6979;SDS011;3530;52.832;10.680;2022-10-15T00:33:21;4.82;;;4.38;;
6979;SDS011;3530;52.832;10.680;2022-10-15T00:36:09;5.80;;;4.18;;
6979;SDS011;3530;52.832;10.680;2022-10-15T00:38:57;6.95;;;4.00;;
6979;SDS011;3530;52.832;10.680;2022-10-15T00:41:43;4.53;;;4.13;;
6979;SDS011;3530;52.832;10.680;2022-10-15T00:47:16;4.40;;;4.00;;
6979;SDS011;3530;52.832;10.680;2022-10-15T00:52:56;5.32;;;4.80;;
6979;SDS011;3530;52.832;10.680;2022-10-15T00:55:43;5.50;;;4.32;;
6979;SDS011;3530;52.832;10.680;2022-10-15T00:58:29;7.65;;;5.22;;
6979;SDS011;3530;52.832;10.680;2022-10-15T01:01:16;5.75;;;3.97;;
6979;SDS011;3530;52.832;10.680;2022-10-15T01:04:01;4.45;;;4.05;;
6979;SDS011;3530;52.832;10.680;2022-10-15T01:06:48;5.35;;;4.13;;
6979;SDS011;3530;52.832;10.680;2022-10-15T01:09:34;7.55;;;4.45;;
6979;SDS011;3530;52.832;10.680;2022-10-15T01:12:33;5.53;;;4.93;;
6979;SDS011;3530;52.832;10.680;2022-10-15T01:15:43;5.53;;;4.85;;
6979;SDS011;3530;52.832;10.680;2022-10-15T01:21:37;5.40;;;4.25;;
6979;SDS011;3530;52.832;10.680;2022-10-15T01:24:41;4.18;;;3.80;;
6979;SDS011;3530;52.832;10.680;2022-10-15T01:27:44;6.03;;;4.72;;
6979;SDS011;3530;52.832;10.680;2022-10-15T01:36:18;6.20;;;5.45;;
6979;SDS011;3530;52.832;10.680;2022-10-15T01:39:20;4.93;;;4.38;;
6979;SDS011;3530;52.832;10.680;2022-10-15T01:42:14;5.28;;;4.75;;
6979;SDS011;3530;52.832;10.680;2022-10-15T01:45:21;4.30;;;3.72;;
6979;SDS011;3530;52.832;10.680;2022-10-15T01:48:12;5.32;;;4.82;;
6979;SDS011;3530;52.832;10.680;2022-10-15T01:50:59;8.25;;;4.03;;
6979;SDS011;3530;52.832;10.680;2022-10-15T01:53:46;6.03;;;4.57;;
6979;SDS011;3530;52.832;10.680;2022-10-15T01:56:33;4.22;;;3.22;;
6979;SDS011;3530;52.832;10.680;2022-10-15T01:59:21;4.53;;;4.10;;
6979;SDS011;3530;52.832;10.680;2022-10-15T02:02:09;4.93;;;4.53;;
6979;SDS011;3530;52.832;10.680;2022-10-15T02:04:55;5.47;;;4.95;;
6979;SDS011;3530;52.832;10.680;2022-10-15T02:13:51;7.60;;;6.07;;
6979;SDS011;3530;52.832;10.680;2022-10-15T02:19:40;6.72;;;6.00;;
6979;SDS011;3530;52.832;10.680;2022-10-15T02:22:31;7.80;;;6.45;;
6979;SDS011;3530;52.832;10.680;2022-10-15T02:25:21;7.60;;;5.45;;
6979;SDS011;3530;52.832;10.680;2022-10-15T02:28:08;6.28;;;4.82;;
6979;SDS011;3530;52.832;10.680;2022-10-15T02:30:54;5.97;;;4.97;;
6979;SDS011;3530;52.832;10.680;2022-10-15T02:33:40;9.85;;;7.97;;
6979;SDS011;3530;52.832;10.680;2022-10-15T02:36:26;7.90;;;6.28;;
6979;SDS011;3530;52.832;10.680;2022-10-15T02:39:13;8.27;;;7.47;;
6979;SDS011;3530;52.832;10.680;2022-10-15T02:42:03;7.93;;;5.55;;
6979;SDS011;3530;52.832;10.680;2022-10-15T02:44:49;8.65;;;5.85;;
6979;SDS011;3530;52.832;10.680;2022-10-15T02:47:34;6.32;;;5.75;;
6979;SDS011;3530;52.832;10.680;2022-10-15T02:50:20;9.10;;;7.50;;
6979;SDS011;3530;52.832;10.680;2022-10-15T02:53:06;10.88;;;8.88;;
6979;SDS011;3530;52.832;10.680;2022-10-15T02:55:52;5.75;;;5.15;;
6979;SDS011;3530;52.832;10.680;2022-10-15T02:58:37;7.55;;;5.40;;
6979;SDS011;3530;52.832;10.680;2022-10-15T03:01:23;8.18;;;7.07;;
6979;SDS011;3530;52.832;10.680;2022-10-15T03:04:09;8.80;;;7.70;;
6979;SDS011;3530;52.832;10.680;2022-10-15T03:06:55;8.80;;;6.75;;
6979;SDS011;3530;52.832;10.680;2022-10-15T03:09:40;9.73;;;7.88;;
6979;SDS011;3530;52.832;10.680;2022-10-15T03:12:26;11.73;;;8.68;;
6979;SDS011;3530;52.832;10.680;2022-10-15T03:15:12;10.55;;;7.78;;
6979;SDS011;3530;52.832;10.680;2022-10-15T03:17:57;8.32;;;6.53;;
6979;SDS011;3530;52.832;10.680;2022-10-15T03:20:43;8.00;;;6.22;;
6979;SDS011;3530;52.832;10.680;2022-10-15T03:23:29;11.35;;;8.85;;
6979;SDS011;3530;52.832;10.680;2022-10-15T03:26:15;9.50;;;6.80;;
6979;SDS011;3530;52.832;10.680;2022-10-15T03:29:00;6.95;;;6.25;;
6979;SDS011;3530;52.832;10.680;2022-10-15T03:31:46;8.23;;;7.40;;
6979;SDS011;3530;52.832;10.680;2022-10-15T03:34:32;8.77;;;6.35;;
6979;SDS011;3530;52.832;10.680;2022-10-15T03:37:17;12.52;;;8.57;;
6979;SDS011;3530;52.832;10.680;2022-10-15T03:40:03;11.05;;;8.98;;
6979;SDS011;3530;52.832;10.680;2022-10-15T03:42:49;12.85;;;9.38;;
6979;SDS011;3530;52.832;10.680;2022-10-15T03:45:36;12.57;;;8.20;;
6979;SDS011;3530;52.832;10.680;2022-10-15T03:48:21;14.15;;;9.45;;
6979;SDS011;3530;52.832;10.680;2022-10-15T03:51:07;12.20;;;9.00;;
6979;SDS011;3530;52.832;10.680;2022-10-15T03:53:53;10.75;;;8.20;;
6979;SDS011;3530;52.832;10.680;2022-10-15T03:56:38;12.50;;;9.02;;
6979;SDS011;3530;52.832;10.680;2022-10-15T03:59:24;12.48;;;9.70;;
6979;SDS011;3530;52.832;10.680;2022-10-15T04:02:10;13.43;;;8.98;;
6979;SDS011;3530;52.832;10.680;2022-10-15T04:04:55;12.27;;;8.63;;
6979;SDS011;3530;52.832;10.680;2022-10-15T04:07:41;12.27;;;8.80;;
6979;SDS011;3530;52.832;10.680;2022-10-15T04:10:27;12.70;;;9.13;;
6979;SDS011;3530;52.832;10.680;2022-10-15T04:13:13;13.35;;;8.45;;
6979;SDS011;3530;52.832;10.680;2022-10-15T04:15:59;11.32;;;8.80;;
6979;SDS011;3530;52.832;10.680;2022-10-15T04:18:45;14.43;;;9.82;;
6979;SDS011;3530;52.832;10.680;2022-10-15T04:21:30;11.57;;;8.82;;
6979;SDS011;3530;52.832;10.680;2022-10-15T04:24:16;11.63;;;8.88;;
6979;SDS011;3530;52.832;10.680;2022-10-15T04:27:02;12.38;;;9.27;;
6979;SDS011;3530;52.832;10.680;2022-10-15T04:29:47;13.57;;;9.43;;
6979;SDS011;3530;52.832;10.680;2022-10-15T04:32:33;11.35;;;8.57;;
6979;SDS011;3530;52.832;10.680;2022-10-15T04:35:19;14.73;;;9.90;;
6979;SDS011;3530;52.832;10.680;2022-10-15T04:38:05;14.88;;;10.07;;
6979;SDS011;3530;52.832;10.680;2022-10-15T04:41:01;14.93;;;9.02;;
6979;SDS011;3530;52.832;10.680;2022-10-15T04:43:53;15.82;;;9.13;;
6979;SDS011;3530;52.832;10.680;2022-10-15T04:46:40;10.70;;;8.13;;
6979;SDS011;3530;52.832;10.680;2022-10-15T04:49:25;11.75;;;9.00;;
6979;SDS011;3530;52.832;10.680;2022-10-15T04:52:11;13.43;;;9.55;;
6979;SDS011;3530;52.832;10.680;2022-10-15T04:54:56;12.75;;;9.43;;
6979;SDS011;3530;52.832;10.680;2022-10-15T04:57:42;15.15;;;10.10;;
6979;SDS011;3530;52.832;10.680;2022-10-15T05:00:28;12.77;;;8.68;;
6979;SDS011;3530;52.832;10.680;2022-10-15T05:03:14;13.75;;;9.40;;
6979;SDS011;3530;52.832;10.680;2022-10-15T05:06:00;14.57;;;9.57;;
6979;SDS011;3530;52.832;10.680;2022-10-15T05:08:47;11.95;;;9.10;;
6979;SDS011;3530;52.832;10.680;2022-10-15T05:11:34;11.48;;;7.72;;
6979;SDS011;3530;52.832;10.680;2022-10-15T05:14:21;13.68;;;9.18;;
6979;SDS011;3530;52.832;10.680;2022-10-15T05:17:07;8.65;;;6.90;;
6979;SDS011;3530;52.832;10.680;2022-10-15T05:19:52;15.80;;;9.50;;
6979;SDS011;3530;52.832;10.680;2022-10-15T05:22:38;8.57;;;6.00;;
6979;SDS011;3530;52.832;10.680;2022-10-15T05:25:24;12.75;;;8.40;;
6979;SDS011;3530;52.832;10.680;2022-10-15T05:28:09;15.43;;;9.85;;
6979;SDS011;3530;52.832;10.680;2022-10-15T05:30:55;12.48;;;8.88;;
6979;SDS011;3530;52.832;10.680;2022-10-15T05:33:48;11.63;;;7.90;;
6979;SDS011;3530;52.832;10.680;2022-10-15T05:36:35;13.35;;;9.20;;
6979;SDS011;3530;52.832;10.680;2022-10-15T05:39:21;18.13;;;10.35;;
6979;SDS011;3530;52.832;10.680;2022-10-15T05:42:08;15.82;;;10.65;;
6979;SDS011;3530;52.832;10.680;2022-10-15T05:44:54;9.90;;;7.55;;
6979;SDS011;3530;52.832;10.680;2022-10-15T05:47:40;9.85;;;7.60;;
6979;SDS011;3530;52.832;10.680;2022-10-15T05:50:25;18.33;;;11.40;;
6979;SDS011;3530;52.832;10.680;2022-10-15T05:53:11;17.92;;;11.50;;
6979;SDS011;3530;52.832;10.680;2022-10-15T05:55:57;16.65;;;10.10;;
6979;SDS011;3530;52.832;10.680;2022-10-15T05:58:45;17.67;;;11.38;;
6979;SDS011;3530;52.832;10.680;2022-10-15T06:01:31;18.25;;;11.82;;
6979;SDS011;3530;52.832;10.680;2022-10-15T06:04:17;15.77;;;10.95;;
6979;SDS011;3530;52.832;10.680;2022-10-15T06:07:02;14.90;;;10.18;;
6979;SDS011;3530;52.832;10.680;2022-10-15T06:09:48;16.17;;;11.38;;
6979;SDS011;3530;52.832;10.680;2022-10-15T06:12:34;20.98;;;11.23;;
6979;SDS011;3530;52.832;10.680;2022-10-15T06:15:19;20.65;;;11.80;;
6979;SDS011;3530;52.832;10.680;2022-10-15T06:18:05;18.92;;;11.05;;
6979;SDS011;3530;52.832;10.680;2022-10-15T06:20:51;20.23;;;12.27;;
6979;SDS011;3530;52.832;10.680;2022-10-15T06:23:37;20.88;;;12.23;;
6979;SDS011;3530;52.832;10.680;2022-10-15T06:26:23;18.40;;;10.70;;
6979;SDS011;3530;52.832;10.680;2022-10-15T06:29:09;14.82;;;8.88;;
6979;SDS011;3530;52.832;10.680;2022-10-15T06:31:54;12.60;;;8.90;;
6979;SDS011;3530;52.832;10.680;2022-10-15T06:34:40;14.00;;;10.25;;
6979;SDS011;3530;52.832;10.680;2022-10-15T06:37:27;15.20;;;10.02;;
6979;SDS011;3530;52.832;10.680;2022-10-15T06:40:14;15.25;;;9.40;;
6979;SDS011;3530;52.832;10.680;2022-10-15T06:43:07;12.88;;;7.57;;
6979;SDS011;3530;52.832;10.680;2022-10-15T06:45:53;12.93;;;8.27;;
6979;SDS011;3530;52.832;10.680;2022-10-15T06:48:39;16.17;;;9.93;;
6979;SDS011;3530;52.832;10.680;2022-10-15T06:51:25;17.83;;;11.30;;
6979;SDS011;3530;52.832;10.680;2022-10-15T06:54:10;13.90;;;9.13;;
6979;SDS011;3530;52.832;10.680;2022-10-15T06:56:56;18.50;;;10.85;;
6979;SDS011;3530;52.832;10.680;2022-10-15T06:59:42;18.75;;;10.90;;
6979;SDS011;3530;52.832;10.680;2022-10-15T07:02:27;12.25;;;7.65;;
6979;SDS011;3530;52.832;10.680;2022-10-15T07:05:14;20.67;;;11.65;;
6979;SDS011;3530;52.832;10.680;2022-10-15T07:07:59;16.63;;;9.38;;
6979;SDS011;3530;52.832;10.680;2022-10-15T07:10:45;13.55;;;9.32;;
6979;SDS011;3530;52.832;10.680;2022-10-15T07:13:31;17.42;;;9.90;;
6979;SDS011;3530;52.832;10.680;2022-10-15T07:16:17;14.50;;;8.80;;
6979;SDS011;3530;52.832;10.680;2022-10-15T07:19:02;17.27;;;10.35;;
6979;SDS011;3530;52.832;10.680;2022-10-15T07:21:48;16.27;;;9.43;;
6979;SDS011;3530;52.832;10.680;2022-10-15T07:24:34;16.42;;;9.75;;
6979;SDS011;3530;52.832;10.680;2022-10-15T07:27:19;19.90;;;10.13;;
6979;SDS011;3530;52.832;10.680;2022-10-15T07:30:05;14.82;;;9.50;;
6979;SDS011;3530;52.832;10.680;2022-10-15T07:32:52;20.63;;;10.68;;
6979;SDS011;3530;52.832;10.680;2022-10-15T07:35:39;17.17;;;11.00;;
6979;SDS011;3530;52.832;10.680;2022-10-15T07:38:25;16.15;;;8.77;;
6979;SDS011;3530;52.832;10.680;2022-10-15T07:41:11;15.57;;;10.30;;
6979;SDS011;3530;52.832;10.680;2022-10-15T07:43:56;11.52;;;7.07;;
6979;SDS011;3530;52.832;10.680;2022-10-15T07:46:42;21.25;;;11.07;;
6979;SDS011;3530;52.832;10.680;2022-10-15T07:49:28;21.48;;;11.98;;
6979;SDS011;3530;52.832;10.680;2022-10-15T07:52:13;18.80;;;11.80;;
6979;SDS011;3530;52.832;10.680;2022-10-15T07:54:59;12.88;;;8.32;;
6979;SDS011;3530;52.832;10.680;2022-10-15T07:57:45;21.63;;;12.50;;
6979;SDS011;3530;52.832;10.680;2022-10-15T08:00:31;23.23;;;13.48;;
6979;SDS011;3530;52.832;10.680;2022-10-15T08:03:17;19.08;;;11.30;;
6979;SDS011;3530;52.832;10.680;2022-10-15T08:06:04;21.23;;;11.90;;
6979;SDS011;3530;52.832;10.680;2022-10-15T08:08:51;20.52;;;12.43;;
6979;SDS011;3530;52.832;10.680;2022-10-15T08:11:36;15.00;;;9.38;;
6979;SDS011;3530;52.832;10.680;2022-10-15T08:14:22;17.88;;;11.32;;
6979;SDS011;3530;52.832;10.680;2022-10-15T08:17:08;14.82;;;9.65;;
6979;SDS011;3530;52.832;10.680;2022-10-15T08:19:54;13.27;;;8.48;;
6979;SDS011;3530;52.832;10.680;2022-10-15T08:22:39;16.05;;;9.38;;
6979;SDS011;3530;52.832;10.680;2022-10-15T08:25:25;17.33;;;10.73;;
6979;SDS011;3530;52.832;10.680;2022-10-15T08:28:11;15.60;;;9.43;;
6979;SDS011;3530;52.832;10.680;2022-10-15T08:30:57;15.18;;;9.50;;
6979;SDS011;3530;52.832;10.680;2022-10-15T08:33:43;17.42;;;11.70;;
6979;SDS011;3530;52.832;10.680;2022-10-15T08:36:30;16.38;;;10.43;;
6979;SDS011;3530;52.832;10.680;2022-10-15T08:39:16;18.25;;;10.40;;
6979;SDS011;3530;52.832;10.680;2022-10-15T08:42:03;19.63;;;12.35;;
6979;SDS011;3530;52.832;10.680;2022-10-15T08:44:50;20.90;;;12.27;;
6979;SDS011;3530;52.832;10.680;2022-10-15T08:47:41;22.92;;;13.40;;
6979;SDS011;3530;52.832;10.680;2022-10-15T08:51:13;14.15;;;9.55;;
6979;SDS011;3530;52.832;10.680;2022-10-15T08:53:44;19.10;;;11.60;;
6979;SDS011;3530;52.832;10.680;2022-10-15T08:56:35;18.83;;;12.15;;
6979;SDS011;3530;52.832;10.680;2022-10-15T09:02:28;20.50;;;12.00;;
6979;SDS011;3530;52.832;10.680;2022-10-15T09:05:24;19.90;;;10.80;;
6979;SDS011;3530;52.832;10.680;2022-10-15T09:14:28;20.90;;;12.40;;
6979;SDS011;3530;52.832;10.680;2022-10-15T09:17:19;13.40;;;8.65;;
6979;SDS011;3530;52.832;10.680;2022-10-15T09:20:12;26.33;;;12.75;;
6979;SDS011;3530;52.832;10.680;2022-10-15T09:23:00;21.77;;;13.02;;
6979;SDS011;3530;52.832;10.680;2022-10-15T09:25:49;20.77;;;12.30;;
6979;SDS011;3530;52.832;10.680;2022-10-15T09:28:59;21.30;;;11.90;;
6979;SDS011;3530;52.832;10.680;2022-10-15T09:34:53;17.73;;;11.45;;
6979;SDS011;3530;52.832;10.680;2022-10-15T09:44:18;19.92;;;12.25;;
6979;SDS011;3530;52.832;10.680;2022-10-15T09:47:24;16.85;;;9.85;;
6979;SDS011;3530;52.832;10.680;2022-10-15T09:50:13;15.68;;;10.48;;
6979;SDS011;3530;52.832;10.680;2022-10-15T09:53:01;21.75;;;11.70;;
6979;SDS011;3530;52.832;10.680;2022-10-15T09:56:02;20.73;;;12.45;;
6979;SDS011;3530;52.832;10.680;2022-10-15T09:58:54;25.10;;;13.60;;
6979;SDS011;3530;52.832;10.680;2022-10-15T10:01:42;20.13;;;11.38;;
6979;SDS011;3530;52.832;10.680;2022-10-15T10:04:41;24.65;;;12.45;;
6979;SDS011;3530;52.832;10.680;2022-10-15T10:07:27;15.68;;;9.88;;
6979;SDS011;3530;52.832;10.680;2022-10-15T10:10:23;21.55;;;12.38;;
6979;SDS011;3530;52.832;10.680;2022-10-15T10:13:25;17.55;;;10.68;;
6979;SDS011;3530;52.832;10.680;2022-10-15T10:16:13;16.20;;;9.15;;
6979;SDS011;3530;52.832;10.680;2022-10-15T10:19:14;13.45;;;8.55;;
6979;SDS011;3530;52.832;10.680;2022-10-15T10:22:16;16.27;;;10.55;;
6979;SDS011;3530;52.832;10.680;2022-10-15T10:25:09;16.15;;;9.25;;
6979;SDS011;3530;52.832;10.680;2022-10-15T10:31:05;22.20;;;11.48;;
6979;SDS011;3530;52.832;10.680;2022-10-15T10:33:52;21.23;;;11.65;;
6979;SDS011;3530;52.832;10.680;2022-10-15T10:36:37;20.48;;;12.07;;
6979;SDS011;3530;52.832;10.680;2022-10-15T10:39:24;18.27;;;11.07;;
6979;SDS011;3530;52.832;10.680;2022-10-15T10:45:15;18.75;;;12.93;;
6979;SDS011;3530;52.832;10.680;2022-10-15T10:48:18;15.60;;;9.05;;
6979;SDS011;3530;52.832;10.680;2022-10-15T10:51:08;16.50;;;11.02;;
6979;SDS011;3530;52.832;10.680;2022-10-15T10:53:59;18.58;;;11.80;;
6979;SDS011;3530;52.832;10.680;2022-10-15T10:56:46;16.15;;;11.07;;
6979;SDS011;3530;52.832;10.680;2022-10-15T10:59:36;17.88;;;12.00;;
6979;SDS011;3530;52.832;10.680;2022-10-15T11:02:28;13.98;;;10.73;;
6979;SDS011;3530;52.832;10.680;2022-10-15T11:05:14;11.88;;;9.23;;
6979;SDS011;3530;52.832;10.680;2022-10-15T11:11:06;17.42;;;11.25;;
6979;SDS011;3530;52.832;10.680;2022-10-15T11:20:10;9.27;;;7.82;;
6979;SDS011;3530;52.832;10.680;2022-10-15T11:32:28;13.50;;;9.43;;
6979;SDS011;3530;52.832;10.680;2022-10-15T11:38:46;19.23;;;12.23;;
6979;SDS011;3530;52.832;10.680;2022-10-15T11:47:45;12.35;;;9.75;;
6979;SDS011;3530;52.832;10.680;2022-10-15T11:56:35;14.38;;;10.60;;
6979;SDS011;3530;52.832;10.680;2022-10-15T11:59:29;11.20;;;7.82;;
6979;SDS011;3530;52.832;10.680;2022-10-15T12:02:32;12.40;;;9.00;;
6979;SDS011;3530;52.832;10.680;2022-10-15T12:05:21;13.90;;;10.38;;
6979;SDS011;3530;52.832;10.680;2022-10-15T12:08:14;14.35;;;9.80;;
6979;SDS011;3530;52.832;10.680;2022-10-15T12:14:24;13.63;;;9.55;;
6979;SDS011;3530;52.832;10.680;2022-10-15T12:17:18;13.30;;;9.25;;
6979;SDS011;3530;52.832;10.680;2022-10-15T12:20:14;18.75;;;13.20;;
6979;SDS011;3530;52.832;10.680;2022-10-15T12:23:02;14.35;;;10.48;;
6979;SDS011;3530;52.832;10.680;2022-10-15T12:25:48;13.20;;;10.02;;
6979;SDS011;3530;52.832;10.680;2022-10-15T12:28:33;14.48;;;10.85;;
6979;SDS011;3530;52.832;10.680;2022-10-15T12:31:20;12.75;;;8.85;;
6979;SDS011;3530;52.832;10.680;2022-10-15T12:34:06;11.23;;;9.18;;
6979;SDS011;3530;52.832;10.680;2022-10-15T12:37:16;13.55;;;8.75;;
6979;SDS011;3530;52.832;10.680;2022-10-15T12:40:45;11.70;;;9.02;;
6979;SDS011;3530;52.832;10.680;2022-10-15T12:43:15;12.63;;;8.80;;
6979;SDS011;3530;52.832;10.680;2022-10-15T12:46:02;9.88;;;7.97;;
6979;SDS011;3530;52.832;10.680;2022-10-15T12:48:49;10.40;;;8.18;;
6979;SDS011;3530;52.832;10.680;2022-10-15T12:51:38;10.27;;;7.32;;
6979;SDS011;3530;52.832;10.680;2022-10-15T13:06:30;10.88;;;7.55;;
6979;SDS011;3530;52.832;10.680;2022-10-15T13:09:23;8.05;;;7.13;;
6979;SDS011;3530;52.832;10.680;2022-10-15T13:12:22;8.68;;;5.75;;
6979;SDS011;3530;52.832;10.680;2022-10-15T13:15:10;11.90;;;6.70;;
6979;SDS011;3530;52.832;10.680;2022-10-15T13:17:58;8.23;;;6.82;;
6979;SDS011;3530;52.832;10.680;2022-10-15T13:20:44;8.10;;;6.45;;
6979;SDS011;3530;52.832;10.680;2022-10-15T13:23:31;6.88;;;6.18;;
6979;SDS011;3530;52.832;10.680;2022-10-15T13:26:19;6.97;;;6.00;;
6979;SDS011;3530;52.832;10.680;2022-10-15T13:29:13;7.88;;;6.03;;
6979;SDS011;3530;52.832;10.680;2022-10-15T13:31:59;7.35;;;5.82;;
6979;SDS011;3530;52.832;10.680;2022-10-15T13:34:46;7.68;;;6.40;;
6979;SDS011;3530;52.832;10.680;2022-10-15T13:37:34;6.05;;;5.45;;
6979;SDS011;3530;52.832;10.680;2022-10-15T13:40:24;5.57;;;5.00;;
6979;SDS011;3530;52.832;10.680;2022-10-15T13:43:16;6.18;;;4.85;;
6979;SDS011;3530;52.832;10.680;2022-10-15T13:46:10;4.70;;;4.15;;
6979;SDS011;3530;52.832;10.680;2022-10-15T13:49:00;5.10;;;4.60;;
6979;SDS011;3530;52.832;10.680;2022-10-15T13:51:48;5.13;;;4.50;;
6979;SDS011;3530;52.832;10.680;2022-10-15T13:54:35;4.32;;;3.97;;
6979;SDS011;3530;52.832;10.680;2022-10-15T13:57:21;4.30;;;3.83;;
6979;SDS011;3530;52.832;10.680;2022-10-15T14:00:07;4.75;;;3.80;;
6979;SDS011;3530;52.832;10.680;2022-10-15T14:03:08;3.70;;;3.22;;
6979;SDS011;3530;52.832;10.680;2022-10-15T14:06:10;3.95;;;3.63;;
6979;SDS011;3530;52.832;10.680;2022-10-15T14:09:17;3.28;;;3.08;;
6979;SDS011;3530;52.832;10.680;2022-10-15T14:12:07;3.30;;;3.10;;
6979;SDS011;3530;52.832;10.680;2022-10-15T14:14:54;3.45;;;3.15;;
6979;SDS011;3530;52.832;10.680;2022-10-15T14:17:40;3.20;;;2.90;;
6979;SDS011;3530;52.832;10.680;2022-10-15T14:20:26;3.60;;;3.30;;
6979;SDS011;3530;52.832;10.680;2022-10-15T14:23:15;2.92;;;2.72;;
6979;SDS011;3530;52.832;10.680;2022-10-15T14:26:05;2.67;;;2.58;;
6979;SDS011;3530;52.832;10.680;2022-10-15T14:28:51;2.72;;;2.53;;
6979;SDS011;3530;52.832;10.680;2022-10-15T14:31:38;4.70;;;2.28;;
6979;SDS011;3530;52.832;10.680;2022-10-15T14:40:16;2.47;;;2.25;;
6979;SDS011;3530;52.832;10.680;2022-10-15T14:43:04;3.65;;;2.33;;
6979;SDS011;3530;52.832;10.680;2022-10-15T14:48:36;4.10;;;2.60;;
6979;SDS011;3530;52.832;10.680;2022-10-15T14:51:24;2.80;;;2.60;;
6979;SDS011;3530;52.832;10.680;2022-10-15T14:54:17;2.78;;;2.58;;
6979;SDS011;3530;52.832;10.680;2022-10-15T14:57:16;2.63;;;2.05;;
6979;SDS011;3530;52.832;10.680;2022-10-15T15:00:23;2.17;;;2.08;;
6979;SDS011;3530;52.832;10.680;2022-10-15T15:03:14;2.75;;;2.55;;
6979;SDS011;3530;52.832;10.680;2022-10-15T15:06:04;4.78;;;3.38;;
6979;SDS011;3530;52.832;10.680;2022-10-15T15:08:49;5.10;;;3.00;;
6979;SDS011;3530;52.832;10.680;2022-10-15T15:11:35;3.33;;;3.03;;
6979;SDS011;3530;52.832;10.680;2022-10-15T15:14:23;2.60;;;2.40;;
6979;SDS011;3530;52.832;10.680;2022-10-15T15:17:13;2.80;;;2.60;;
6979;SDS011;3530;52.832;10.680;2022-10-15T15:20:01;2.47;;;2.20;;
6979;SDS011;3530;52.832;10.680;2022-10-15T15:22:47;2.72;;;2.53;;
6979;SDS011;3530;52.832;10.680;2022-10-15T15:25:34;3.60;;;2.30;;
6979;SDS011;3530;52.832;10.680;2022-10-15T15:28:22;2.72;;;2.53;;
6979;SDS011;3530;52.832;10.680;2022-10-15T15:31:14;3.03;;;2.60;;
6979;SDS011;3530;52.832;10.680;2022-10-15T15:34:01;2.88;;;2.67;;
6979;SDS011;3530;52.832;10.680;2022-10-15T15:36:47;2.50;;;2.40;;
6979;SDS011;3530;52.832;10.680;2022-10-15T15:39:33;2.90;;;2.70;;
6979;SDS011;3530;52.832;10.680;2022-10-15T15:42:20;2.75;;;2.20;;
6979;SDS011;3530;52.832;10.680;2022-10-15T15:45:14;3.65;;;3.17;;
6979;SDS011;3530;52.832;10.680;2022-10-15T15:48:02;3.20;;;2.90;;
6979;SDS011;3530;52.832;10.680;2022-10-15T15:50:49;3.33;;;3.03;;
6979;SDS011;3530;52.832;10.680;2022-10-15T15:53:36;4.28;;;3.75;;
6979;SDS011;3530;52.832;10.680;2022-10-15T15:56:21;2.90;;;2.70;;
6979;SDS011;3530;52.832;10.680;2022-10-15T15:59:07;2.83;;;2.63;;
6979;SDS011;3530;52.832;10.680;2022-10-15T16:01:53;2.95;;;2.72;;
6979;SDS011;3530;52.832;10.680;2022-10-15T16:04:39;2.70;;;2.50;;
6979;SDS011;3530;52.832;10.680;2022-10-15T16:07:25;3.17;;;2.85;;
6979;SDS011;3530;52.832;10.680;2022-10-15T16:10:10;3.47;;;3.17;;
6979;SDS011;3530;52.832;10.680;2022-10-15T16:12:56;3.60;;;3.30;;
6979;SDS011;3530;52.832;10.680;2022-10-15T16:15:42;3.58;;;3.20;;
6979;SDS011;3530;52.832;10.680;2022-10-15T16:18:28;3.10;;;2.90;;
6979;SDS011;3530;52.832;10.680;2022-10-15T16:21:19;5.88;;;3.22;;
6979;SDS011;3530;52.832;10.680;2022-10-15T16:24:05;2.90;;;2.65;;
6979;SDS011;3530;52.832;10.680;2022-10-15T16:26:51;2.47;;;2.28;;
6979;SDS011;3530;52.832;10.680;2022-10-15T16:29:37;2.70;;;2.50;;
6979;SDS011;3530;52.832;10.680;2022-10-15T16:32:22;3.53;;;2.42;;
6979;SDS011;3530;52.832;10.680;2022-10-15T16:35:08;2.78;;;2.58;;
6979;SDS011;3530;52.832;10.680;2022-10-15T16:37:54;3.15;;;2.42;;
6979;SDS011;3530;52.832;10.680;2022-10-15T16:40:40;3.13;;;2.70;;
6979;SDS011;3530;52.832;10.680;2022-10-15T16:43:26;2.45;;;2.35;;
6979;SDS011;3530;52.832;10.680;2022-10-15T16:46:12;2.88;;;2.42;;
6979;SDS011;3530;52.832;10.680;2022-10-15T16:48:58;4.50;;;3.47;;
6979;SDS011;3530;52.832;10.680;2022-10-15T16:51:43;3.15;;;2.75;;
6979;SDS011;3530;52.832;10.680;2022-10-15T16:54:29;2.60;;;2.40;;
6979;SDS011;3530;52.832;10.680;2022-10-15T16:57:15;4.50;;;2.50;;
6979;SDS011;3530;52.832;10.680;2022-10-15T17:00:00;3.25;;;3.05;;
6979;SDS011;3530;52.832;10.680;2022-10-15T17:02:46;3.40;;;3.10;;
6979;SDS011;3530;52.832;10.680;2022-10-15T17:05:32;3.20;;;2.95;;
6979;SDS011;3530;52.832;10.680;2022-10-15T17:08:17;3.88;;;3.58;;
6979;SDS011;3530;52.832;10.680;2022-10-15T17:11:03;2.72;;;2.53;;
6979;SDS011;3530;52.832;10.680;2022-10-15T17:13:49;2.20;;;2.10;;
6979;SDS011;3530;52.832;10.680;2022-10-15T17:16:46;2.05;;;1.90;;
6979;SDS011;3530;52.832;10.680;2022-10-15T17:19:33;1.77;;;1.67;;
6979;SDS011;3530;52.832;10.680;2022-10-15T17:22:19;1.77;;;1.67;;
6979;SDS011;3530;52.832;10.680;2022-10-15T17:25:05;2.03;;;1.63;;
6979;SDS011;3530;52.832;10.680;2022-10-15T17:27:51;2.17;;;2.08;;
6979;SDS011;3530;52.832;10.680;2022-10-15T17:30:36;1.98;;;1.88;;
6979;SDS011;3530;52.832;10.680;2022-10-15T17:33:22;2.03;;;1.88;;
6979;SDS011;3530;52.832;10.680;2022-10-15T17:36:12;1.70;;;1.70;;
6979;SDS011;3530;52.832;10.680;2022-10-15T17:39:02;1.55;;;1.40;;
6979;SDS011;3530;52.832;10.680;2022-10-15T17:41:48;1.70;;;1.60;;
6979;SDS011;3530;52.832;10.680;2022-10-15T17:44:35;1.85;;;1.67;;
6979;SDS011;3530;52.832;10.680;2022-10-15T17:47:21;1.80;;;1.70;;
6979;SDS011;3530;52.832;10.680;2022-10-15T17:50:08;1.50;;;1.50;;
6979;SDS011;3530;52.832;10.680;2022-10-15T17:52:53;1.70;;;1.60;;
6979;SDS011;3530;52.832;10.680;2022-10-15T17:55:42;1.80;;;1.70;;
6979;SDS011;3530;52.832;10.680;2022-10-15T17:58:27;1.40;;;1.40;;
6979;SDS011;3530;52.832;10.680;2022-10-15T18:01:14;1.50;;;1.40;;
6979;SDS011;3530;52.832;10.680;2022-10-15T18:04:02;1.42;;;1.35;;
6979;SDS011;3530;52.832;10.680;2022-10-15T18:06:48;1.35;;;1.35;;
6979;SDS011;3530;52.832;10.680;2022-10-15T18:09:33;1.35;;;1.30;;
6979;SDS011;3530;52.832;10.680;2022-10-15T18:12:20;1.60;;;1.60;;
6979;SDS011;3530;52.832;10.680;2022-10-15T18:15:05;1.45;;;1.13;;
6979;SDS011;3530;52.832;10.680;2022-10-15T18:17:52;1.45;;;1.45;;
6979;SDS011;3530;52.832;10.680;2022-10-15T18:20:38;1.10;;;1.10;;
6979;SDS011;3530;52.832;10.680;2022-10-15T18:23:25;1.33;;;1.33;;
6979;SDS011;3530;52.832;10.680;2022-10-15T18:26:12;1.20;;;1.20;;
6979;SDS011;3530;52.832;10.680;2022-10-15T18:28:59;1.58;;;1.30;;
6979;SDS011;3530;52.832;10.680;2022-10-15T18:31:45;6.57;;;4.20;;
6979;SDS011;3530;52.832;10.680;2022-10-15T18:34:33;1.77;;;1.67;;
6979;SDS011;3530;52.832;10.680;2022-10-15T18:37:19;2.30;;;2.20;;
6979;SDS011;3530;52.832;10.680;2022-10-15T18:40:05;1.77;;;1.67;;
6979;SDS011;3530;52.832;10.680;2022-10-15T18:42:51;1.63;;;1.50;;